sensor_id;sensor_type;location;lat;lon;timestamp;temperature;humidity
48860;DHT22;34679;51.436;-2.518;2023-12-20T00:01:33;7.20;99.90
48860;DHT22;34679;51.436;-2.518;2023-12-20T00:03:59;7.20;99.90
48860;DHT22;34679;51.436;-2.518;2023-12-20T00:06:25;7.20;99.90
48860;DHT22;34679;51.436;-2.518;2023-12-20T00:08:50;7.20;99.90
48860;DHT22;34679;51.436;-2.518;2023-12-20T00:11:16;6.40;99.90
48860;DHT22;34679;51.436;-2.518;2023-12-20T00:13:42;7.30;99.90
48860;DHT22;34679;51.436;-2.518;2023-12-20T00:16:09;7.20;99.90
48860;DHT22;34679;51.436;-2.518;2023-12-20T00:18:35;7.20;99.90
48860;DHT22;34679;51.436;-2.518;2023-12-20T00:21:01;7.10;99.90
48860;DHT22;34679;51.436;-2.518;2023-12-20T00:23:26;7.10;99.90
48860;DHT22;34679;51.436;-2.518;2023-12-20T00:25:52;7.00;99.90
48860;DHT22;34679;51.436;-2.518;2023-12-20T00:28:18;7.00;99.90
48860;DHT22;34679;51.436;-2.518;2023-12-20T00:30:45;7.00;99.90
48860;DHT22;34679;51.436;-2.518;2023-12-20T00:33:11;7.00;99.90
48860;DHT22;34679;51.436;-2.518;2023-12-20T00:35:36;7.00;99.90
48860;DHT22;34679;51.436;-2.518;2023-12-20T00:38:02;6.90;99.90
48860;DHT22;34679;51.436;-2.518;2023-12-20T00:40:28;6.90;99.90
48860;DHT22;34679;51.436;-2.518;2023-12-20T00:48:05;6.80;99.90
48860;DHT22;34679;51.436;-2.518;2023-12-20T04:33:56;8.40;99.90
48860;DHT22;34679;51.436;-2.518;2023-12-20T04:36:22;8.40;99.90
48860;DHT22;34679;51.436;-2.518;2023-12-20T04:54:30;8.70;99.90
48860;DHT22;34679;51.436;-2.518;2023-12-20T04:56:56;8.80;99.90
48860;DHT22;34679;51.436;-2.518;2023-12-20T04:59:22;8.80;99.90
48860;DHT22;34679;51.436;-2.518;2023-12-20T05:01:47;8.80;99.90
48860;DHT22;34679;51.436;-2.518;2023-12-20T05:04:13;8.80;99.90
48860;DHT22;34679;51.436;-2.518;2023-12-20T05:06:39;8.80;99.90
48860;DHT22;34679;51.436;-2.518;2023-12-20T05:09:04;8.80;99.90
48860;DHT22;34679;51.436;-2.518;2023-12-20T05:11:30;8.80;99.90
48860;DHT22;34679;51.436;-2.518;2023-12-20T05:13:56;8.80;99.90
48860;DHT22;34679;51.436;-2.518;2023-12-20T05:16:21;8.90;99.90
48860;DHT22;34679;51.436;-2.518;2023-12-20T05:18:48;8.90;99.90
48860;DHT22;34679;51.436;-2.518;2023-12-20T05:21:15;8.90;99.90
48860;DHT22;34679;51.436;-2.518;2023-12-20T05:23:40;8.90;99.90
48860;DHT22;34679;51.436;-2.518;2023-12-20T05:26:06;8.90;99.90
48860;DHT22;34679;51.436;-2.518;2023-12-20T05:28:32;8.90;99.90
48860;DHT22;34679;51.436;-2.518;2023-12-20T05:30:57;9.00;99.90
48860;DHT22;34679;51.436;-2.518;2023-12-20T05:33:23;9.00;99.90
48860;DHT22;34679;51.436;-2.518;2023-12-20T05:35:50;9.00;99.90
48860;DHT22;34679;51.436;-2.518;2023-12-20T05:38:15;9.00;99.90
48860;DHT22;34679;51.436;-2.518;2023-12-20T05:40:42;8.90;99.90
48860;DHT22;34679;51.436;-2.518;2023-12-20T05:43:07;8.90;99.90
48860;DHT22;34679;51.436;-2.518;2023-12-20T05:45:33;8.80;99.90
48860;DHT22;34679;51.436;-2.518;2023-12-20T05:47:59;8.80;99.90
48860;DHT22;34679;51.436;-2.518;2023-12-20T05:50:25;8.80;99.90
48860;DHT22;34679;51.436;-2.518;2023-12-20T05:52:51;8.80;99.90
48860;DHT22;34679;51.436;-2.518;2023-12-20T05:55:16;8.80;99.90
48860;DHT22;34679;51.436;-2.518;2023-12-20T05:57:42;8.80;99.90
48860;DHT22;34679;51.436;-2.518;2023-12-20T06:00:09;8.80;99.90
48860;DHT22;34679;51.436;-2.518;2023-12-20T06:02:35;8.90;99.90
48860;DHT22;34679;51.436;-2.518;2023-12-20T06:05:04;8.80;99.90
48860;DHT22;34679;51.436;-2.518;2023-12-20T06:07:29;8.90;99.90
48860;DHT22;34679;51.436;-2.518;2023-12-20T06:09:55;8.90;99.90
48860;DHT22;34679;51.436;-2.518;2023-12-20T06:12:21;8.90;99.90
48860;DHT22;34679;51.436;-2.518;2023-12-20T06:14:46;8.90;99.90
48860;DHT22;34679;51.436;-2.518;2023-12-20T06:17:12;8.90;99.90
48860;DHT22;34679;51.436;-2.518;2023-12-20T06:19:38;8.90;99.90
48860;DHT22;34679;51.436;-2.518;2023-12-20T06:29:49;8.80;99.90
48860;DHT22;34679;51.436;-2.518;2023-12-20T06:32:15;8.80;99.90
48860;DHT22;34679;51.436;-2.518;2023-12-20T06:34:41;8.80;99.90
48860;DHT22;34679;51.436;-2.518;2023-12-20T06:37:06;8.80;99.90
48860;DHT22;34679;51.436;-2.518;2023-12-20T06:39:32;8.80;99.90
48860;DHT22;34679;51.436;-2.518;2023-12-20T06:41:59;8.80;99.90
48860;DHT22;34679;51.436;-2.518;2023-12-20T06:44:25;8.80;99.90
48860;DHT22;34679;51.436;-2.518;2023-12-20T06:52:28;9.00;99.90
48860;DHT22;34679;51.436;-2.518;2023-12-20T06:54:54;9.00;99.90
48860;DHT22;34679;51.436;-2.518;2023-12-20T06:57:20;9.00;99.90
48860;DHT22;34679;51.436;-2.518;2023-12-20T06:59:45;9.00;99.90
48860;DHT22;34679;51.436;-2.518;2023-12-20T07:07:22;9.10;99.90
48860;DHT22;34679;51.436;-2.518;2023-12-20T07:09:49;9.00;99.90
48860;DHT22;34679;51.436;-2.518;2023-12-20T07:12:15;9.00;99.90
48860;DHT22;34679;51.436;-2.518;2023-12-20T07:14:41;9.10;99.90
48860;DHT22;34679;51.436;-2.518;2023-12-20T07:17:06;9.10;99.90
48860;DHT22;34679;51.436;-2.518;2023-12-20T07:19:37;9.10;99.90
48860;DHT22;34679;51.436;-2.518;2023-12-20T07:22:04;9.10;99.90
48860;DHT22;34679;51.436;-2.518;2023-12-20T07:24:29;9.20;99.90
48860;DHT22;34679;51.436;-2.518;2023-12-20T07:26:55;9.20;99.90
48860;DHT22;34679;51.436;-2.518;2023-12-20T07:29:21;9.20;99.90
48860;DHT22;34679;51.436;-2.518;2023-12-20T07:31:47;9.30;99.90
48860;DHT22;34679;51.436;-2.518;2023-12-20T07:34:12;9.30;99.90
48860;DHT22;34679;51.436;-2.518;2023-12-20T07:36:38;9.40;99.90
48860;DHT22;34679;51.436;-2.518;2023-12-20T07:39:03;9.40;99.90
48860;DHT22;34679;51.436;-2.518;2023-12-20T07:41:29;9.40;99.90
48860;DHT22;34679;51.436;-2.518;2023-12-20T07:43:55;9.50;99.90
48860;DHT22;34679;51.436;-2.518;2023-12-20T07:46:22;9.50;99.90
48860;DHT22;34679;51.436;-2.518;2023-12-20T07:48:50;9.50;99.90
48860;DHT22;34679;51.436;-2.518;2023-12-20T07:51:16;9.50;99.90
48860;DHT22;34679;51.436;-2.518;2023-12-20T07:53:41;9.60;99.90
48860;DHT22;34679;51.436;-2.518;2023-12-20T07:56:17;9.60;99.90
48860;DHT22;34679;51.436;-2.518;2023-12-20T07:58:44;9.60;99.90
48860;DHT22;34679;51.436;-2.518;2023-12-20T08:01:11;9.60;99.90
48860;DHT22;34679;51.436;-2.518;2023-12-20T08:03:37;9.60;99.90
48860;DHT22;34679;51.436;-2.518;2023-12-20T08:06:03;9.60;99.90
48860;DHT22;34679;51.436;-2.518;2023-12-20T08:08:29;9.50;99.90
48860;DHT22;34679;51.436;-2.518;2023-12-20T08:10:55;9.50;99.90
48860;DHT22;34679;51.436;-2.518;2023-12-20T08:13:23;9.50;99.90
48860;DHT22;34679;51.436;-2.518;2023-12-20T08:15:52;9.40;99.90
48860;DHT22;34679;51.436;-2.518;2023-12-20T08:18:17;9.40;99.90
48860;DHT22;34679;51.436;-2.518;2023-12-20T08:20:43;9.40;99.90
48860;DHT22;34679;51.436;-2.518;2023-12-20T08:23:09;9.40;99.90
48860;DHT22;34679;51.436;-2.518;2023-12-20T08:25:34;9.40;99.90
48860;DHT22;34679;51.436;-2.518;2023-12-20T08:28:02;9.40;99.90
48860;DHT22;34679;51.436;-2.518;2023-12-20T08:30:28;9.40;99.90
48860;DHT22;34679;51.436;-2.518;2023-12-20T08:32:55;9.40;99.90
48860;DHT22;34679;51.436;-2.518;2023-12-20T08:41:03;9.50;99.90
48860;DHT22;34679;51.436;-2.518;2023-12-20T08:43:39;9.50;99.90
48860;DHT22;34679;51.436;-2.518;2023-12-20T08:46:08;9.50;99.90
48860;DHT22;34679;51.436;-2.518;2023-12-20T08:48:35;9.50;99.90
48860;DHT22;34679;51.436;-2.518;2023-12-20T08:51:01;9.60;99.90
48860;DHT22;34679;51.436;-2.518;2023-12-20T08:53:26;9.50;99.90
48860;DHT22;34679;51.436;-2.518;2023-12-20T08:55:52;9.60;99.90
48860;DHT22;34679;51.436;-2.518;2023-12-20T08:58:18;9.60;99.90
48860;DHT22;34679;51.436;-2.518;2023-12-20T09:00:43;9.70;99.90
48860;DHT22;34679;51.436;-2.518;2023-12-20T09:03:09;9.90;99.90
48860;DHT22;34679;51.436;-2.518;2023-12-20T09:05:35;9.90;99.90
48860;DHT22;34679;51.436;-2.518;2023-12-20T09:08:01;10.00;99.90
48860;DHT22;34679;51.436;-2.518;2023-12-20T09:10:26;10.10;99.90
48860;DHT22;34679;51.436;-2.518;2023-12-20T09:12:53;10.10;99.90
48860;DHT22;34679;51.436;-2.518;2023-12-20T09:15:25;10.10;99.90
48860;DHT22;34679;51.436;-2.518;2023-12-20T09:17:51;10.20;99.90
48860;DHT22;34679;51.436;-2.518;2023-12-20T09:20:16;10.10;99.90
48860;DHT22;34679;51.436;-2.518;2023-12-20T09:22:42;10.10;99.90
48860;DHT22;34679;51.436;-2.518;2023-12-20T09:25:09;10.10;99.90
48860;DHT22;34679;51.436;-2.518;2023-12-20T09:27:36;10.10;99.90
48860;DHT22;34679;51.436;-2.518;2023-12-20T09:30:01;10.10;99.90
48860;DHT22;34679;51.436;-2.518;2023-12-20T09:32:27;10.10;99.90
48860;DHT22;34679;51.436;-2.518;2023-12-20T09:34:53;10.10;99.90
48860;DHT22;34679;51.436;-2.518;2023-12-20T09:37:18;10.00;99.90
48860;DHT22;34679;51.436;-2.518;2023-12-20T09:39:44;10.00;99.90
48860;DHT22;34679;51.436;-2.518;2023-12-20T09:44:45;9.90;99.90
48860;DHT22;34679;51.436;-2.518;2023-12-20T09:47:12;10.00;99.90
48860;DHT22;34679;51.436;-2.518;2023-12-20T09:49:38;10.10;99.90
48860;DHT22;34679;51.436;-2.518;2023-12-20T09:52:07;10.10;99.90
48860;DHT22;34679;51.436;-2.518;2023-12-20T09:54:35;10.20;99.90
48860;DHT22;34679;51.436;-2.518;2023-12-20T09:57:00;10.40;99.90
48860;DHT22;34679;51.436;-2.518;2023-12-20T09:59:26;10.50;99.90
48860;DHT22;34679;51.436;-2.518;2023-12-20T10:01:55;10.50;99.90
48860;DHT22;34679;51.436;-2.518;2023-12-20T10:04:22;10.50;99.90
48860;DHT22;34679;51.436;-2.518;2023-12-20T10:06:48;10.50;99.90
48860;DHT22;34679;51.436;-2.518;2023-12-20T10:09:13;10.60;99.90
48860;DHT22;34679;51.436;-2.518;2023-12-20T10:11:39;10.50;99.90
48860;DHT22;34679;51.436;-2.518;2023-12-20T10:14:06;10.50;99.90
48860;DHT22;34679;51.436;-2.518;2023-12-20T10:16:33;10.60;99.90
48860;DHT22;34679;51.436;-2.518;2023-12-20T10:22:46;10.60;99.90
48860;DHT22;34679;51.436;-2.518;2023-12-20T10:25:12;10.60;99.90
48860;DHT22;34679;51.436;-2.518;2023-12-20T10:27:37;10.60;99.90
48860;DHT22;34679;51.436;-2.518;2023-12-20T10:30:03;10.70;99.90
48860;DHT22;34679;51.436;-2.518;2023-12-20T10:32:30;10.80;99.90
48860;DHT22;34679;51.436;-2.518;2023-12-20T10:34:57;10.80;99.90
48860;DHT22;34679;51.436;-2.518;2023-12-20T10:37:23;10.80;99.90
48860;DHT22;34679;51.436;-2.518;2023-12-20T10:39:50;10.80;99.90
48860;DHT22;34679;51.436;-2.518;2023-12-20T10:42:18;10.90;99.90
48860;DHT22;34679;51.436;-2.518;2023-12-20T10:44:46;10.90;99.90
48860;DHT22;34679;51.436;-2.518;2023-12-20T10:47:13;11.00;99.90
48860;DHT22;34679;51.436;-2.518;2023-12-20T10:49:39;11.10;99.90
48860;DHT22;34679;51.436;-2.518;2023-12-20T10:52:06;11.10;99.90
48860;DHT22;34679;51.436;-2.518;2023-12-20T10:54:32;11.20;99.90
48860;DHT22;34679;51.436;-2.518;2023-12-20T10:56:58;11.30;99.90
48860;DHT22;34679;51.436;-2.518;2023-12-20T10:59:28;11.30;99.90
48860;DHT22;34679;51.436;-2.518;2023-12-20T11:01:55;11.40;99.90
48860;DHT22;34679;51.436;-2.518;2023-12-20T11:07:39;11.40;99.90
48860;DHT22;34679;51.436;-2.518;2023-12-20T11:10:25;11.50;99.90
48860;DHT22;34679;51.436;-2.518;2023-12-20T11:13:02;11.70;99.90
48860;DHT22;34679;51.436;-2.518;2023-12-20T11:15:35;11.80;99.90
48860;DHT22;34679;51.436;-2.518;2023-12-20T11:18:01;12.10;99.90
48860;DHT22;34679;51.436;-2.518;2023-12-20T11:20:46;12.20;99.90
48860;DHT22;34679;51.436;-2.518;2023-12-20T11:23:13;12.10;99.90
48860;DHT22;34679;51.436;-2.518;2023-12-20T11:25:52;11.90;99.90
48860;DHT22;34679;51.436;-2.518;2023-12-20T11:28:21;11.70;99.90
48860;DHT22;34679;51.436;-2.518;2023-12-20T11:30:53;11.60;99.90
48860;DHT22;34679;51.436;-2.518;2023-12-20T11:33:25;11.50;99.90
48860;DHT22;34679;51.436;-2.518;2023-12-20T11:35:51;11.50;99.90
48860;DHT22;34679;51.436;-2.518;2023-12-20T11:38:19;11.50;99.90
48860;DHT22;34679;51.436;-2.518;2023-12-20T11:40:48;11.60;99.90
48860;DHT22;34679;51.436;-2.518;2023-12-20T11:46:03;11.60;99.90
48860;DHT22;34679;51.436;-2.518;2023-12-20T11:48:30;11.60;99.90
48860;DHT22;34679;51.436;-2.518;2023-12-20T11:50:57;11.60;99.90
48860;DHT22;34679;51.436;-2.518;2023-12-20T11:53:23;11.60;99.90
48860;DHT22;34679;51.436;-2.518;2023-12-20T11:55:51;11.60;99.90
48860;DHT22;34679;51.436;-2.518;2023-12-20T11:58:17;11.70;99.90
48860;DHT22;34679;51.436;-2.518;2023-12-20T12:00:43;11.80;99.90
48860;DHT22;34679;51.436;-2.518;2023-12-20T12:03:09;11.70;99.90
48860;DHT22;34679;51.436;-2.518;2023-12-20T12:05:35;11.80;99.90
48860;DHT22;34679;51.436;-2.518;2023-12-20T12:08:04;11.80;99.90
48860;DHT22;34679;51.436;-2.518;2023-12-20T12:10:31;11.70;99.90
48860;DHT22;34679;51.436;-2.518;2023-12-20T12:12:56;11.80;99.90
48860;DHT22;34679;51.436;-2.518;2023-12-20T12:15:22;11.80;99.90
48860;DHT22;34679;51.436;-2.518;2023-12-20T12:17:55;11.80;99.90
48860;DHT22;34679;51.436;-2.518;2023-12-20T12:20:21;11.90;99.90
48860;DHT22;34679;51.436;-2.518;2023-12-20T12:23:01;11.80;99.90
48860;DHT22;34679;51.436;-2.518;2023-12-20T12:25:29;11.90;99.90
48860;DHT22;34679;51.436;-2.518;2023-12-20T12:27:55;11.90;99.90
48860;DHT22;34679;51.436;-2.518;2023-12-20T12:30:22;11.80;99.90
48860;DHT22;34679;51.436;-2.518;2023-12-20T12:32:48;11.80;99.90
48860;DHT22;34679;51.436;-2.518;2023-12-20T12:35:14;11.80;99.90
48860;DHT22;34679;51.436;-2.518;2023-12-20T12:37:40;11.90;99.90
48860;DHT22;34679;51.436;-2.518;2023-12-20T12:40:11;11.90;99.90
48860;DHT22;34679;51.436;-2.518;2023-12-20T12:42:37;12.00;99.90
48860;DHT22;34679;51.436;-2.518;2023-12-20T12:45:04;11.90;99.90
48860;DHT22;34679;51.436;-2.518;2023-12-20T12:47:30;11.90;99.90
48860;DHT22;34679;51.436;-2.518;2023-12-20T12:49:56;11.90;99.90
48860;DHT22;34679;51.436;-2.518;2023-12-20T12:52:23;11.90;99.90
48860;DHT22;34679;51.436;-2.518;2023-12-20T12:54:49;11.90;99.90
48860;DHT22;34679;51.436;-2.518;2023-12-20T12:57:15;11.90;99.90
48860;DHT22;34679;51.436;-2.518;2023-12-20T12:59:43;11.80;99.90
48860;DHT22;34679;51.436;-2.518;2023-12-20T13:02:14;11.80;99.90
48860;DHT22;34679;51.436;-2.518;2023-12-20T13:04:41;11.80;99.90
48860;DHT22;34679;51.436;-2.518;2023-12-20T13:07:08;11.70;99.90
48860;DHT22;34679;51.436;-2.518;2023-12-20T13:09:36;11.80;99.90
48860;DHT22;34679;51.436;-2.518;2023-12-20T13:12:02;11.70;99.90
48860;DHT22;34679;51.436;-2.518;2023-12-20T13:14:31;11.70;99.90
48860;DHT22;34679;51.436;-2.518;2023-12-20T13:16:58;11.70;99.90
48860;DHT22;34679;51.436;-2.518;2023-12-20T13:19:24;11.70;99.90
48860;DHT22;34679;51.436;-2.518;2023-12-20T13:21:49;11.80;99.90
48860;DHT22;34679;51.436;-2.518;2023-12-20T13:24:15;11.70;99.90
48860;DHT22;34679;51.436;-2.518;2023-12-20T13:26:41;11.70;99.90
48860;DHT22;34679;51.436;-2.518;2023-12-20T13:29:07;11.50;99.90
48860;DHT22;34679;51.436;-2.518;2023-12-20T13:31:32;11.50;99.90
48860;DHT22;34679;51.436;-2.518;2023-12-20T13:33:58;11.40;99.90
48860;DHT22;34679;51.436;-2.518;2023-12-20T13:36:24;11.40;99.90
48860;DHT22;34679;51.436;-2.518;2023-12-20T13:38:50;11.30;99.90
48860;DHT22;34679;51.436;-2.518;2023-12-20T13:41:15;11.30;99.90
48860;DHT22;34679;51.436;-2.518;2023-12-20T13:43:41;11.40;99.90
48860;DHT22;34679;51.436;-2.518;2023-12-20T13:46:08;11.40;99.90
48860;DHT22;34679;51.436;-2.518;2023-12-20T13:48:34;11.40;99.90
48860;DHT22;34679;51.436;-2.518;2023-12-20T13:51:00;11.40;99.90
48860;DHT22;34679;51.436;-2.518;2023-12-20T13:53:28;11.30;99.90
48860;DHT22;34679;51.436;-2.518;2023-12-20T13:55:54;11.30;99.90
48860;DHT22;34679;51.436;-2.518;2023-12-20T13:58:19;11.30;99.90
48860;DHT22;34679;51.436;-2.518;2023-12-20T14:00:46;11.20;99.90
48860;DHT22;34679;51.436;-2.518;2023-12-20T14:03:11;11.20;99.90
48860;DHT22;34679;51.436;-2.518;2023-12-20T14:05:37;11.10;99.90
48860;DHT22;34679;51.436;-2.518;2023-12-20T14:08:03;11.10;99.90
48860;DHT22;34679;51.436;-2.518;2023-12-20T14:10:29;11.10;99.90
48860;DHT22;34679;51.436;-2.518;2023-12-20T14:12:55;11.10;99.90
48860;DHT22;34679;51.436;-2.518;2023-12-20T14:15:21;11.00;99.90
48860;DHT22;34679;51.436;-2.518;2023-12-20T14:17:47;11.00;99.90
48860;DHT22;34679;51.436;-2.518;2023-12-20T14:20:12;11.10;99.90
48860;DHT22;34679;51.436;-2.518;2023-12-20T14:22:38;11.10;99.90
48860;DHT22;34679;51.436;-2.518;2023-12-20T14:25:11;11.10;99.90
48860;DHT22;34679;51.436;-2.518;2023-12-20T14:27:38;11.10;99.90
48860;DHT22;34679;51.436;-2.518;2023-12-20T14:30:04;11.10;99.90
48860;DHT22;34679;51.436;-2.518;2023-12-20T14:32:31;11.10;99.90
48860;DHT22;34679;51.436;-2.518;2023-12-20T14:34:57;11.00;99.90
48860;DHT22;34679;51.436;-2.518;2023-12-20T14:37:24;11.00;99.90
48860;DHT22;34679;51.436;-2.518;2023-12-20T14:39:51;11.00;99.90
48860;DHT22;34679;51.436;-2.518;2023-12-20T14:42:17;11.00;99.90
48860;DHT22;34679;51.436;-2.518;2023-12-20T14:44:43;11.10;99.90
48860;DHT22;34679;51.436;-2.518;2023-12-20T14:47:08;11.20;99.90
48860;DHT22;34679;51.436;-2.518;2023-12-20T14:49:34;11.20;99.90
48860;DHT22;34679;51.436;-2.518;2023-12-20T14:52:01;11.20;99.90
48860;DHT22;34679;51.436;-2.518;2023-12-20T14:54:27;11.20;99.90
48860;DHT22;34679;51.436;-2.518;2023-12-20T14:56:52;11.10;99.90
48860;DHT22;34679;51.436;-2.518;2023-12-20T14:59:18;11.10;99.90
48860;DHT22;34679;51.436;-2.518;2023-12-20T15:01:44;11.10;99.90
48860;DHT22;34679;51.436;-2.518;2023-12-20T15:04:10;11.10;99.90
48860;DHT22;34679;51.436;-2.518;2023-12-20T15:06:36;11.10;99.90
48860;DHT22;34679;51.436;-2.518;2023-12-20T15:09:02;11.10;99.90
48860;DHT22;34679;51.436;-2.518;2023-12-20T15:11:33;11.10;99.90
48860;DHT22;34679;51.436;-2.518;2023-12-20T15:13:58;11.10;99.90
48860;DHT22;34679;51.436;-2.518;2023-12-20T15:16:26;11.10;99.90
48860;DHT22;34679;51.436;-2.518;2023-12-20T15:22:00;11.10;99.90
48860;DHT22;34679;51.436;-2.518;2023-12-20T15:31:11;11.00;99.90
48860;DHT22;34679;51.436;-2.518;2023-12-20T15:33:37;11.10;99.90
48860;DHT22;34679;51.436;-2.518;2023-12-20T15:36:03;11.00;99.90
48860;DHT22;34679;51.436;-2.518;2023-12-20T15:38:29;11.00;99.90
48860;DHT22;34679;51.436;-2.518;2023-12-20T15:40:55;11.00;99.90
48860;DHT22;34679;51.436;-2.518;2023-12-20T15:43:21;11.00;99.90
48860;DHT22;34679;51.436;-2.518;2023-12-20T15:45:47;11.00;99.90
48860;DHT22;34679;51.436;-2.518;2023-12-20T15:48:12;11.00;99.90
48860;DHT22;34679;51.436;-2.518;2023-12-20T15:50:43;10.90;99.90
48860;DHT22;34679;51.436;-2.518;2023-12-20T15:53:09;10.90;99.90
48860;DHT22;34679;51.436;-2.518;2023-12-20T15:55:34;10.90;99.90
48860;DHT22;34679;51.436;-2.518;2023-12-20T15:58:00;10.90;99.90
48860;DHT22;34679;51.436;-2.518;2023-12-20T16:03:10;10.90;99.90
48860;DHT22;34679;51.436;-2.518;2023-12-20T16:05:36;10.90;99.90
48860;DHT22;34679;51.436;-2.518;2023-12-20T16:08:02;10.90;99.90
48860;DHT22;34679;51.436;-2.518;2023-12-20T16:10:28;10.90;99.90
48860;DHT22;34679;51.436;-2.518;2023-12-20T16:12:54;11.00;99.90
48860;DHT22;34679;51.436;-2.518;2023-12-20T16:15:21;10.90;99.90
48860;DHT22;34679;51.436;-2.518;2023-12-20T16:17:47;10.90;99.90
48860;DHT22;34679;51.436;-2.518;2023-12-20T16:20:13;10.90;99.90
48860;DHT22;34679;51.436;-2.518;2023-12-20T16:22:39;11.00;99.90
48860;DHT22;34679;51.436;-2.518;2023-12-20T16:25:06;10.90;99.90
48860;DHT22;34679;51.436;-2.518;2023-12-20T16:27:32;10.80;99.90
48860;DHT22;34679;51.436;-2.518;2023-12-20T16:29:59;10.90;99.90
48860;DHT22;34679;51.436;-2.518;2023-12-20T16:32:25;11.00;99.90
48860;DHT22;34679;51.436;-2.518;2023-12-20T16:34:52;11.00;99.90
48860;DHT22;34679;51.436;-2.518;2023-12-20T16:37:18;11.00;99.90
48860;DHT22;34679;51.436;-2.518;2023-12-20T16:45:33;11.00;99.90
48860;DHT22;34679;51.436;-2.518;2023-12-20T16:47:58;10.30;99.90
48860;DHT22;34679;51.436;-2.518;2023-12-20T16:50:24;11.00;99.90
48860;DHT22;34679;51.436;-2.518;2023-12-20T16:52:50;11.00;99.90
48860;DHT22;34679;51.436;-2.518;2023-12-20T16:55:42;11.00;99.90
48860;DHT22;34679;51.436;-2.518;2023-12-20T16:58:12;11.00;99.90
48860;DHT22;34679;51.436;-2.518;2023-12-20T17:00:39;11.00;99.90
48860;DHT22;34679;51.436;-2.518;2023-12-20T17:03:07;11.00;99.90
48860;DHT22;34679;51.436;-2.518;2023-12-20T17:05:33;11.00;99.90
48860;DHT22;34679;51.436;-2.518;2023-12-20T17:07:59;11.00;99.90
48860;DHT22;34679;51.436;-2.518;2023-12-20T17:10:24;10.90;99.90
48860;DHT22;34679;51.436;-2.518;2023-12-20T17:12:50;10.90;99.90
48860;DHT22;34679;51.436;-2.518;2023-12-20T17:15:16;10.90;99.90
48860;DHT22;34679;51.436;-2.518;2023-12-20T17:17:41;10.90;99.90
48860;DHT22;34679;51.436;-2.518;2023-12-20T17:20:08;11.00;99.90
48860;DHT22;34679;51.436;-2.518;2023-12-20T17:22:34;11.00;99.90
48860;DHT22;34679;51.436;-2.518;2023-12-20T17:24:59;11.00;99.90
48860;DHT22;34679;51.436;-2.518;2023-12-20T17:27:25;11.00;99.90
48860;DHT22;34679;51.436;-2.518;2023-12-20T17:29:51;11.70;99.90
48860;DHT22;34679;51.436;-2.518;2023-12-20T17:32:16;11.00;99.90
48860;DHT22;34679;51.436;-2.518;2023-12-20T17:34:42;11.00;99.90
48860;DHT22;34679;51.436;-2.518;2023-12-20T17:37:08;11.00;99.90
48860;DHT22;34679;51.436;-2.518;2023-12-20T17:39:33;11.00;99.90
48860;DHT22;34679;51.436;-2.518;2023-12-20T17:41:59;11.00;99.90
48860;DHT22;34679;51.436;-2.518;2023-12-20T17:44:25;11.00;99.90
48860;DHT22;34679;51.436;-2.518;2023-12-20T17:46:51;11.00;99.90
48860;DHT22;34679;51.436;-2.518;2023-12-20T17:49:17;11.00;99.90
48860;DHT22;34679;51.436;-2.518;2023-12-20T17:51:46;11.00;99.90
48860;DHT22;34679;51.436;-2.518;2023-12-20T17:54:12;11.00;99.90
48860;DHT22;34679;51.436;-2.518;2023-12-20T17:56:38;11.00;99.90
48860;DHT22;34679;51.436;-2.518;2023-12-20T17:59:04;11.00;99.90
48860;DHT22;34679;51.436;-2.518;2023-12-20T18:01:30;11.00;99.90
48860;DHT22;34679;51.436;-2.518;2023-12-20T18:03:55;11.10;99.90
48860;DHT22;34679;51.436;-2.518;2023-12-20T18:06:21;11.00;99.90
48860;DHT22;34679;51.436;-2.518;2023-12-20T18:12:35;11.00;99.90
48860;DHT22;34679;51.436;-2.518;2023-12-20T18:15:01;11.00;99.90
48860;DHT22;34679;51.436;-2.518;2023-12-20T18:17:28;11.00;99.90
48860;DHT22;34679;51.436;-2.518;2023-12-20T18:19:54;11.00;99.90
48860;DHT22;34679;51.436;-2.518;2023-12-20T18:22:19;11.00;99.90
48860;DHT22;34679;51.436;-2.518;2023-12-20T18:24:45;11.00;99.90
48860;DHT22;34679;51.436;-2.518;2023-12-20T18:27:11;11.00;99.90
48860;DHT22;34679;51.436;-2.518;2023-12-20T18:29:37;10.90;99.90
48860;DHT22;34679;51.436;-2.518;2023-12-20T18:32:02;10.90;99.90
48860;DHT22;34679;51.436;-2.518;2023-12-20T18:34:28;10.90;99.90
48860;DHT22;34679;51.436;-2.518;2023-12-20T18:36:55;10.90;99.90
48860;DHT22;34679;51.436;-2.518;2023-12-20T18:39:21;10.90;99.90
48860;DHT22;34679;51.436;-2.518;2023-12-20T18:41:46;10.80;99.90
48860;DHT22;34679;51.436;-2.518;2023-12-20T18:44:15;10.80;99.90
48860;DHT22;34679;51.436;-2.518;2023-12-20T18:46:43;10.70;99.90
48860;DHT22;34679;51.436;-2.518;2023-12-20T18:49:09;10.70;99.90
48860;DHT22;34679;51.436;-2.518;2023-12-20T18:51:35;10.70;99.90
48860;DHT22;34679;51.436;-2.518;2023-12-20T18:54:01;10.80;99.90
48860;DHT22;34679;51.436;-2.518;2023-12-20T18:56:27;10.70;99.90
48860;DHT22;34679;51.436;-2.518;2023-12-20T18:58:53;10.70;99.90
48860;DHT22;34679;51.436;-2.518;2023-12-20T19:01:19;10.70;99.90
48860;DHT22;34679;51.436;-2.518;2023-12-20T19:03:48;10.80;99.90
48860;DHT22;34679;51.436;-2.518;2023-12-20T19:06:14;10.80;99.90
48860;DHT22;34679;51.436;-2.518;2023-12-20T19:08:39;10.90;99.90
48860;DHT22;34679;51.436;-2.518;2023-12-20T19:11:06;10.90;99.90
48860;DHT22;34679;51.436;-2.518;2023-12-20T19:13:32;10.90;99.90
48860;DHT22;34679;51.436;-2.518;2023-12-20T19:15:58;11.00;99.90
48860;DHT22;34679;51.436;-2.518;2023-12-20T19:18:24;11.00;99.90
48860;DHT22;34679;51.436;-2.518;2023-12-20T19:20:50;11.00;99.90
48860;DHT22;34679;51.436;-2.518;2023-12-20T19:23:17;11.00;99.90
48860;DHT22;34679;51.436;-2.518;2023-12-20T19:25:43;11.10;99.90
48860;DHT22;34679;51.436;-2.518;2023-12-20T19:28:09;11.20;99.90
48860;DHT22;34679;51.436;-2.518;2023-12-20T19:30:34;11.20;99.90
48860;DHT22;34679;51.436;-2.518;2023-12-20T19:33:00;11.20;99.90
48860;DHT22;34679;51.436;-2.518;2023-12-20T19:35:26;11.20;99.90
48860;DHT22;34679;51.436;-2.518;2023-12-20T19:37:51;11.20;99.90
48860;DHT22;34679;51.436;-2.518;2023-12-20T19:40:17;11.20;99.90
48860;DHT22;34679;51.436;-2.518;2023-12-20T19:42:46;11.30;99.90
48860;DHT22;34679;51.436;-2.518;2023-12-20T19:45:11;11.30;99.90
48860;DHT22;34679;51.436;-2.518;2023-12-20T19:47:38;11.30;99.90
48860;DHT22;34679;51.436;-2.518;2023-12-20T19:50:04;11.30;99.90
48860;DHT22;34679;51.436;-2.518;2023-12-20T19:52:30;11.30;99.90
48860;DHT22;34679;51.436;-2.518;2023-12-20T19:54:55;11.30;99.90
48860;DHT22;34679;51.436;-2.518;2023-12-20T19:57:21;11.30;99.90
48860;DHT22;34679;51.436;-2.518;2023-12-20T19:59:47;11.30;99.90
48860;DHT22;34679;51.436;-2.518;2023-12-20T20:02:14;11.30;99.90
48860;DHT22;34679;51.436;-2.518;2023-12-20T20:04:40;11.30;99.90
48860;DHT22;34679;51.436;-2.518;2023-12-20T20:07:06;11.30;99.90
48860;DHT22;34679;51.436;-2.518;2023-12-20T20:09:39;11.40;99.90
48860;DHT22;34679;51.436;-2.518;2023-12-20T20:12:05;11.40;99.90
48860;DHT22;34679;51.436;-2.518;2023-12-20T20:14:31;11.50;99.90
48860;DHT22;34679;51.436;-2.518;2023-12-20T20:16:57;11.40;99.90
48860;DHT22;34679;51.436;-2.518;2023-12-20T20:19:25;11.40;99.90